Nearby METAR Reports

 

KCIC - Chico Municipal, California, USA
Distance from station: SSW 12mi, 20km
Updated: Sat, 21-Oct-2017 1:47pm PDT
Partly cloudy
Partly cloudy
 Wind from varies
Wind: varies 6 mph , 9 km/h
Temperature: 64°F , 18°C
Dew Point: 39°F , 4°C
Humidity: 40%
Barometer: 30.25 inHg , 1024.4 hPa
Clouds: Partly cloudy
Visibility: 40 miles , 64 km
Cloud details: Partly cloudy 8500 ft
Partly cloudy 18000 ft
2017/10/21 20:47 KCIC 212047Z VRB05KT 40SM SCT085 SCT180 18/04 A3025
KOVE - Oroville, California, USA
Distance from station: SSE 31mi, 50km
Updated: Sat, 21-Oct-2017 1:53pm PDT
Clear
Clear
 Wind from SW
Wind: SW 3 mph , 6 km/h
Temperature: 66°F , 19°C
Dew Point: 41°F , 5°C
Humidity: 40%
Barometer: 30.24 inHg , 1024 hPa
Clouds: Clear
Visibility: 10 miles , 16 km
2017/10/21 20:53 KOVE 212053Z AUTO 23003KT 10SM CLR 19/05 A3024 RMK AO2 SLP243 T01940050 58010
 
KRBL - Red Bluff, California, USA
Distance from station: WNW 31mi, 50km
Updated: Sat, 21-Oct-2017 1:54pm PDT
Mostly cloudy
Mostly cloudy
 Wind from varies
Wind: varies 3 mph , 6 km/h
Temperature: 64°F , 18°C
Dew Point: 39°F , 4°C
Humidity: 40%
Barometer: 30.25 inHg , 1024.4 hPa
Clouds: Mostly cloudy
Visibility: 10 miles , 16 km
Cloud details: Mostly cloudy 7000 ft
Mostly cloudy 9000 ft
2017/10/21 20:54 KRBL 212054Z AUTO VRB03KT 10SM BKN070 BKN090 18/04 A3025 RMK AO2 SLP243 T01780039 58006 $
KRDD - Redding, California, USA
Distance from station: NW 50mi, 80km
Updated: Sat, 21-Oct-2017 1:53pm PDT
Overcast
Overcast
 Wind from N
Wind: N 5 mph , 7 km/h
Temperature: 61°F , 16°C
Dew Point: 39°F , 4°C
Humidity: 45%
Barometer: 30.25 inHg , 1024.4 hPa
Clouds: Overcast
Visibility: 10 miles , 16 km
Cloud details: Overcast 5500 ft
2017/10/21 20:53 KRDD 212053Z 01004KT 10SM OVC055 16/04 A3025 RMK AO2 SLP242 T01610044 58004
 
KMYV - Marysville, California, USA
Distance from station: S 59mi, 95km
Updated: Sat, 21-Oct-2017 1:53pm PDT
Clear
Clear
 Wind from W
Wind: W 7 mph , 11 km/h
Temperature: 66°F , 19°C
Dew Point: 43°F , 6°C
Humidity: 43%
Barometer: 30.24 inHg , 1024 hPa
Clouds: Clear
Visibility: 10 miles , 16 km
2017/10/21 20:53 KMYV 212053Z AUTO 27006KT 10SM CLR 19/06 A3024 RMK AO2 SLP242 T01940061 58009
KBAB - Beale Afb/Marysv, California, USA
Distance from station: SSE 59mi, 96km
Updated: Sat, 21-Oct-2017 12:58pm PDT
Clear
Clear
 Wind from NNW
Wind: NNW 7 mph , 11 km/h
Temperature: 64°F , 18°C
Dew Point: 43°F , 6°C
Humidity: 46%
Barometer: 30.23 inHg , 1023.7 hPa
Clouds: Clear
Visibility: 10 miles , 16 km
2017/10/21 19:58 KBAB 211958Z AUTO 33006KT 10SM CLR 18/06 A3023 RMK AO2 SLP240 T01810060 $
 
KGOO - Grass Valley, California, USA
Distance from station: SE 63mi, 102km
Updated: Sat, 21-Oct-2017 1:35pm PDT
Clear
Clear
 Wind from calm
Wind: Calm
Temperature: 59°F , 15°C
Dew Point: 30°F , -1°C
Humidity: 34%
Barometer: 30.26 inHg , 1024.7 hPa
Clouds: Clear
Visibility: 10 miles , 16 km
2017/10/21 20:35 KGOO 212035Z AUTO 00000KT 10SM CLR 15/M01 A3026 RMK AO1
KBLU - Emigrant Gap, California, USA
Distance from station: SE 71mi, 115km
Updated: Sat, 21-Oct-2017 1:52pm PDT
Partly cloudy
Partly cloudy
 Wind from varies
Wind: varies 3 mph , 6 km/h
Temperature: 54°F , 12°C
Dew Point: 34°F , 1°C
Humidity: 47%
Barometer: 30.29 inHg , 1025.7 hPa
Clouds: Partly cloudy
Visibility: 10 miles , 16 km
Cloud details: Partly cloudy 3300 ft
2017/10/21 20:52 KBLU 212052Z AUTO VRB03KT 10SM SCT033 12/01 A3029 RMK AO2 SLP233 T01220006 50003 TSNO
 
KLHM - Lincoln, California, USA
Distance from station: SSE 74mi, 119km
Updated: Sat, 21-Oct-2017 1:35pm PDT
Clear
Clear
 Wind from NW
Wind: NW 6 mph , 9 km/h
Temperature: 66°F , 19°C
Dew Point: 36°F , 2°C
Humidity: 32%
Barometer: 30.23 inHg , 1023.7 hPa
Clouds: Clear
Visibility: 10 miles , 16 km
2017/10/21 20:35 KLHM 212035Z AUTO 31005KT 10SM CLR 19/02 A3023 RMK AO1
KAUN - Auburn Muni, California, USA
Distance from station: SSE 77mi, 123km
Updated: Sat, 21-Oct-2017 1:35pm PDT
Clear
Clear
 Wind from W
Wind: W 8 mph , 13 km/h
Temperature: 64°F , 18°C
Dew Point: 39°F , 4°C
Humidity: 40%
Barometer: 30.24 inHg , 1024 hPa
Clouds: Clear
Visibility: 10 miles , 16 km
2017/10/21 20:35 KAUN 212035Z AUTO 27007KT 10SM CLR 18/04 A3024 RMK AO1
 
KO54 - Weaverville, California, USA
Distance from station: NW 84mi, 135km
Updated: Fri, 16-Jun-2017 5:55pm PDT
NOT Current

 Wind from SW
Wind: SW 12 mph , 19 km/h, Gust: 21 mph , 33 km/h
Temperature: 81°F , 27°C
Dew Point: 54°F , 12°C
Humidity: 39%
Barometer: 30.03 inHg , 1016.9 hPa
Visibility: 10 miles , 16 km
2017/06/17 00:55 KO54 170055Z AUTO 23010G18KT 190V250 10SM 27/12 A3003 RMK AO1
KSMF - Sacramento/Metro, California, USA
Distance from station: S 86mi, 139km
Updated: Sat, 21-Oct-2017 1:53pm PDT
Clear
Clear
 Wind from NNW
Wind: NNW 7 mph , 11 km/h
Temperature: 66°F , 19°C
Dew Point: 45°F , 7°C
Humidity: 46%
Barometer: 30.23 inHg , 1023.7 hPa
Clouds: Clear
Visibility: 10 miles , 16 km
2017/10/21 20:53 KSMF 212053Z 34006KT 10SM CLR 19/07 A3023 RMK AO2 SLP235 T01890067 58009
 
KMCC - Mcclellan Afb, California, USA
Distance from station: SSE 90mi, 145km
Updated: Sat, 21-Oct-2017 1:35pm PDT
Clear
Clear
 Wind from NNW
Wind: NNW 5 mph , 7 km/h
Temperature: 66°F , 19°C
Dew Point: 41°F , 5°C
Humidity: 40%
Barometer: 30.25 inHg , 1024.4 hPa
Clouds: Clear
Visibility: 9 miles , 14 km
2017/10/21 20:35 KMCC 212035Z AUTO 34004KT 9SM CLR 19/05 A3025 RMK AO2
KTRK - Truckee Tahoe, California, USA
Distance from station: ESE 96mi, 155km
Updated: Sat, 21-Oct-2017 1:45pm PDT
Mostly cloudy
Mostly cloudy
 Wind from calm
Wind: Calm
Temperature: 54°F , 12°C
Dew Point: 37°F , 3°C
Humidity: 54%
Barometer: 30.29 inHg , 1025.7 hPa
Clouds: Mostly cloudy
Visibility: 10 miles , 16 km
Cloud details: Mostly cloudy 4200 ft
2017/10/21 20:45 KTRK 212045Z 00000KT 10SM BKN042 12/03 A3029
 
KUKI - Ukiah, California, USA
Distance from station: SW 97mi, 156km
Updated: Sat, 21-Oct-2017 12:56pm PDT
Overcast
Overcast
 Wind from NNE
Wind: NNE 8 mph , 13 km/h
Temperature: 63°F , 17°C
Dew Point: 39°F , 4°C
Humidity: 42%
Barometer: 30.28 inHg , 1025.4 hPa
Clouds: Overcast
Visibility: 10 miles , 16 km
Cloud details: Overcast 3900 ft
2017/10/21 19:56 KUKI 211956Z AUTO 02007KT 10SM OVC039 17/04 A3028 RMK AO2 SLP250 T01720044
KEDU - Davis, California, USA
Distance from station: S 97mi, 157km
Updated: Sat, 21-Oct-2017 1:35pm PDT
Clear
Clear
 Wind from NW
Wind: NW 6 mph , 9 km/h
Temperature: 66°F , 19°C
Dew Point: 37°F , 3°C
Humidity: 35%
Barometer: 30.24 inHg , 1024 hPa
Clouds: Clear
Visibility: 10 miles , 16 km
2017/10/21 20:35 KEDU 212035Z AUTO 31005KT 10SM CLR 19/03 A3024 RMK AO1
 
KMHR - Mather Field, California, USA
Distance from station: SSE 100mi, 161km
Updated: Sat, 21-Oct-2017 1:45pm PDT
Clear
Clear
 Wind from WNW
Wind: WNW 6 mph , 9 km/h
Temperature: 68°F , 20°C
Dew Point: 39°F , 4°C
Humidity: 35%
Barometer: 30.22 inHg , 1023.4 hPa
Clouds: Clear
Visibility: 10 miles , 16 km
2017/10/21 20:45 KMHR 212045Z 30005KT 10SM SKC 20/04 A3022
KMHS - Mount Shasta, California, USA
Distance from station: NNW 100mi, 161km
Updated: Sat, 21-Oct-2017 12:56pm PDT
Overcast
Overcast
 Wind from calm
Wind: Calm
Temperature: 46°F , 8°C
Dew Point: 39°F , 4°C
Humidity: 76%
Barometer: 30.23 inHg , 1023.7 hPa
Clouds: Overcast
Visibility: 10 miles , 16 km
Cloud details: Overcast 4500 ft
2017/10/21 19:56 KMHS 211956Z AUTO 00000KT 10SM OVC045 08/04 A3023 RMK AO2 SLP266 T00830039 $
 
KRTS - Reno/Stead, Nevada, USA
Distance from station: E 100mi, 161km
Updated: Fri, 20-Oct-2017 1:50pm PDT
NOT Current
Overcast
Overcast
 Wind from WNW
Wind: WNW 12 mph , 19 km/h, Gust: 23 mph , 37 km/h
Temperature: 46°F , 8°C
Wind Chill: 40°F , 4°C
Dew Point: 27°F , -3°C
Humidity: 46%
Barometer: 30.03 inHg , 1016.9 hPa
Clouds: Overcast
Visibility: 10 miles , 16 km
Cloud details: Overcast 4300 ft
2017/10/20 20:50 KRTS 202050Z AUTO 29010G20KT 10SM OVC043 08/M03 A3003 RMK AO2
KSAC - Sacramento, California, USA
Distance from station: S 100mi, 162km
Updated: Sat, 21-Oct-2017 1:53pm PDT
Clear
Clear
 Wind from NNW
Wind: NNW 6 mph , 9 km/h
Temperature: 68°F , 20°C
Dew Point: 41°F , 5°C
Humidity: 38%
Barometer: 30.23 inHg , 1023.7 hPa
Clouds: Clear
Visibility: 10 miles , 16 km
2017/10/21 20:53 KSAC 212053Z 33005KT 10SM CLR 20/05 A3023 RMK AO2 SLP236 T02000050 58009